Time;durP1;ratioP1;P1;durP2;ratioP2;P2;SDS_P1;SDS_P2;PMS_P1;PMS_P2;Temp;Humidity;BMP_temperature;BMP_pressure;BME280_temperature;BME280_humidity;BME280_pressure;Samples;Min_cycle;Max_cycle;Signal;HPM_P1;HPM_P2
2022/11/09 00:01:04;;;;;;;13.10;4.43;;;11.30;99.90;;;11.37;100.00;100026.44;4983636;28;20319;-70
2022/11/09 00:03:31;;;;;;;8.35;2.85;;;11.30;99.90;;;11.37;100.00;100021.16;4978836;28;20232;-70
2022/11/09 00:05:59;;;;;;;23.55;4.43;;;11.30;99.90;;;11.42;100.00;100022.00;4995922;28;20242;-70
2022/11/09 00:08:27;;;;;;;11.35;3.83;;;11.30;99.90;;;11.49;100.00;100034.38;4998481;28;20261;-70
2022/11/09 00:10:54;;;;;;;11.15;3.75;;;11.40;99.90;;;11.52;100.00;100035.25;4990796;28;20311;-70
2022/11/09 00:13:21;;;;;;;18.75;6.13;;;11.40;99.90;;;11.48;100.00;100030.84;4991181;28;20267;-72
2022/11/09 00:15:49;;;;;;;13.60;4.97;;;11.40;99.90;;;11.51;100.00;100019.34;4996601;28;20235;-71
2022/11/09 00:18:16;;;;;;;11.02;3.83;;;11.40;99.90;;;11.53;100.00;100020.25;4980806;28;20290;-72
2022/11/09 00:20:43;;;;;;;11.00;3.85;;;11.40;99.90;;;11.54;100.00;100006.13;4977947;28;20305;-72
2022/11/09 00:23:15;;;;;;;11.75;4.07;;;11.50;99.90;;;11.57;100.00;99992.00;4998172;28;20227;-71
2022/11/09 00:25:42;;;;;;;11.60;4.30;;;11.50;99.90;;;11.53;100.00;99999.94;4995735;28;20273;-71
2022/11/09 00:28:09;;;;;;;7.07;2.90;;;11.40;99.90;;;11.56;100.00;100007.00;4979935;28;20322;-72
2022/11/09 00:30:36;;;;;;;10.57;3.45;;;11.50;99.90;;;11.51;100.00;100016.72;4996734;28;20318;-72
2022/11/09 00:33:03;;;;;;;12.30;3.97;;;11.40;99.90;;;11.49;100.00;100026.44;4995692;28;20319;-72
2022/11/09 00:35:30;;;;;;;12.38;4.38;;;11.40;99.90;;;11.50;100.00;100047.59;4980031;28;20240;-72
2022/11/09 00:37:57;;;;;;;11.80;4.10;;;11.40;99.90;;;11.53;100.00;100058.19;4982641;28;20331;-72
2022/11/09 00:40:24;;;;;;;12.80;4.75;;;11.40;99.90;;;11.58;100.00;100065.25;4973480;28;20237;-72
2022/11/09 00:42:51;;;;;;;11.38;3.78;;;11.50;99.90;;;11.63;100.00;100071.44;4997573;28;20262;-72
2022/11/09 00:45:19;;;;;;;11.50;3.90;;;11.50;99.90;;;11.75;100.00;100082.03;4994830;28;20314;-71
2022/11/09 00:47:46;;;;;;;12.63;4.13;;;11.60;99.90;;;11.77;100.00;100091.78;4979081;28;20294;-71
2022/11/09 00:50:13;;;;;;;11.55;4.18;;;11.60;99.90;;;11.83;100.00;100083.81;4978359;28;20242;-71
2022/11/09 00:52:40;;;;;;;12.13;4.25;;;11.70;99.90;;;11.82;100.00;100075.88;4995229;28;20270;-72
2022/11/09 00:55:08;;;;;;;16.15;5.55;;;11.70;99.90;;;11.88;100.00;100082.94;4979168;28;20247;-71
2022/11/09 00:57:35;;;;;;;13.13;4.65;;;11.80;99.90;;;11.94;100.00;100086.47;4982616;28;20285;-70
2022/11/09 01:00:03;;;;;;;11.90;4.38;;;11.80;99.90;;;11.90;100.00;100089.13;4990354;28;20323;-71
2022/11/09 01:02:31;;;;;;;13.65;5.38;;;11.80;99.90;;;11.87;100.00;100076.75;5006430;28;20261;-71
2022/11/09 01:04:58;;;;;;;10.43;3.65;;;11.80;99.90;;;11.89;100.00;100071.44;4995949;28;20282;-71
2022/11/09 01:07:25;;;;;;;12.80;4.55;;;11.80;99.90;;;11.97;100.00;100074.97;4996343;28;20231;-71
2022/11/09 01:09:52;;;;;;;12.75;4.20;;;11.90;99.90;;;11.97;100.00;100067.00;5001396;28;20266;-72
2022/11/09 01:12:19;;;;;;;15.70;5.13;;;11.90;99.90;;;11.93;100.00;100068.78;4983649;28;20754;-72
2022/11/09 01:14:46;;;;;;;10.80;4.13;;;11.90;99.90;;;11.95;100.00;100064.38;4998912;28;20230;-72
2022/11/09 01:17:13;;;;;;;12.15;4.43;;;11.90;99.90;;;11.98;100.00;100074.06;4995144;28;20235;-72
2022/11/09 01:19:40;;;;;;;12.43;4.55;;;11.90;99.90;;;11.99;100.00;100058.19;4995964;28;21108;-71
2022/11/09 01:22:07;;;;;;;11.88;4.40;;;11.90;99.90;;;12.02;100.00;100058.16;4976905;28;20318;-72
2022/11/09 01:24:34;;;;;;;11.85;4.13;;;11.90;99.90;;;12.00;100.00;100059.94;4976199;28;20326;-72
2022/11/09 01:27:01;;;;;;;7.70;2.70;;;11.90;99.90;;;12.01;100.00;100048.44;4979366;28;20355;-72
2022/11/09 01:29:28;;;;;;;11.85;4.03;;;11.90;99.90;;;11.99;100.00;100067.91;4994153;28;20255;-72
2022/11/09 01:31:55;;;;;;;10.18;3.42;;;11.90;99.90;;;12.03;100.00;100085.56;4991506;28;20282;-72
2022/11/09 01:34:22;;;;;;;12.48;4.40;;;11.90;99.90;;;12.02;100.00;100084.66;4998823;28;20240;-72
2022/11/09 01:36:50;;;;;;;11.13;4.03;;;11.90;99.90;;;12.03;100.00;100091.72;4982792;28;20294;-72
2022/11/09 01:39:18;;;;;;;10.80;3.72;;;11.90;99.90;;;12.07;100.00;100082.88;5000813;28;20297;-72
2022/11/09 01:41:46;;;;;;;8.15;2.97;;;12.00;99.90;;;12.04;100.00;100074.06;4997315;28;20272;-71
2022/11/09 01:44:17;;;;;;;10.00;3.55;;;12.00;99.90;;;12.05;100.00;100065.22;5012766;28;20318;-71
2022/11/09 01:46:58;;;;;;;11.25;4.03;;;11.90;99.90;;;12.03;100.00;100075.84;4983348;28;20544;-71
2022/11/09 01:49:46;;;;;;;13.20;4.93;;;12.00;99.90;;;12.06;100.00;100077.59;5001435;28;20327;-72
2022/11/09 01:52:49;;;;;;;10.98;3.95;;;12.00;99.90;;;12.03;100.00;100080.25;4982827;28;20251;-71
2022/11/09 01:55:21;;;;;;;8.82;3.33;;;11.90;99.90;;;12.01;100.00;100076.72;4987593;28;20227;-72
2022/11/09 01:58:03;;;;;;;9.27;3.72;;;11.90;99.90;;;12.02;100.00;100071.41;4998076;28;20314;-72
2022/11/09 02:00:33;;;;;;;13.05;4.45;;;11.90;99.90;;;12.00;100.00;100065.25;4982927;28;20322;-72
2022/11/09 02:03:09;;;;;;;12.40;4.30;;;11.90;99.90;;;11.98;100.00;100064.38;4994959;28;20235;-72
2022/11/09 02:05:38;;;;;;;11.18;3.70;;;11.90;99.90;;;11.98;100.00;100066.13;4996767;28;20231;-72
2022/11/09 02:08:07;;;;;;;11.13;3.75;;;11.90;99.90;;;11.98;100.00;100060.81;4990400;28;20257;-72
2022/11/09 02:10:48;;;;;;;13.68;5.18;;;11.90;99.90;;;12.00;100.00;100056.41;4987768;28;20258;-72
2022/11/09 02:13:18;;;;;;;12.68;4.55;;;11.90;99.90;;;11.97;100.00;100059.94;5012005;28;20231;-72
2022/11/09 02:15:48;;;;;;;11.48;4.15;;;11.90;99.90;;;11.96;100.00;100054.66;4996734;28;20227;-72
2022/11/09 02:18:16;;;;;;;12.80;4.75;;;11.90;99.90;;;11.92;100.00;100052.91;4975700;28;20302;-71
2022/11/09 02:20:53;;;;;;;11.85;4.28;;;11.90;99.90;;;11.89;100.00;100037.00;4977062;28;20232;-72
2022/11/09 02:23:21;;;;;;;12.32;4.30;;;11.80;99.90;;;11.83;100.00;100037.91;4991743;28;20259;-72
2022/11/09 02:26:07;;;;;;;11.82;4.18;;;11.80;99.90;;;11.79;100.00;100030.84;4976921;28;20232;-72
2022/11/09 02:28:37;;;;;;;12.95;4.55;;;11.70;99.90;;;11.78;100.00;100039.69;4966773;28;20231;-72
2022/11/09 02:31:09;;;;;;;9.98;3.40;;;11.70;99.90;;;11.71;100.00;100038.78;4987965;28;20331;-73
2022/11/09 02:33:43;;;;;;;12.15;4.38;;;11.70;99.90;;;11.68;100.00;100046.69;4971889;28;20783;-71
2022/11/09 02:36:10;;;;;;;7.88;2.90;;;11.60;99.90;;;11.65;100.00;100043.19;4978504;28;20262;-71
2022/11/09 02:38:37;;;;;;;11.88;4.10;;;11.60;99.90;;;11.66;100.00;100039.63;4991838;28;20259;-71
2022/11/09 02:41:05;;;;;;;12.23;4.38;;;11.60;99.90;;;11.60;100.00;100035.22;4991958;28;20236;-71
2022/11/09 02:43:33;;;;;;;11.82;4.25;;;11.50;99.90;;;11.60;100.00;100021.09;4975917;28;20323;-72
2022/11/09 02:46:00;;;;;;;12.73;4.63;;;11.50;99.90;;;11.57;100.00;100018.47;4979036;28;20635;-72
2022/11/09 02:48:27;;;;;;;15.93;6.35;;;11.90;99.90;;;11.55;100.00;100014.06;4997622;28;20231;-72
2022/11/09 02:50:54;;;;;;;11.65;3.72;;;11.50;99.90;;;11.54;100.00;100011.41;4999764;28;20307;-72
2022/11/09 02:53:21;;;;;;;14.13;5.45;;;11.50;99.90;;;11.52;100.00;100013.19;4975632;28;20228;-71
2022/11/09 02:55:48;;;;;;;14.05;5.07;;;11.50;99.90;;;11.52;100.00;100008.75;4976179;28;20253;-72
2022/11/09 02:58:15;;;;;;;14.05;5.13;;;11.50;99.90;;;11.52;100.00;100011.41;4974710;28;20326;-72
2022/11/09 03:00:42;;;;;;;11.90;3.92;;;11.40;99.90;;;11.52;100.00;100010.53;4982677;28;20315;-72
2022/11/09 03:03:09;;;;;;;60.70;14.45;;;11.40;99.90;;;11.50;100.00;100018.47;5682535;22;20227;-86
2022/11/09 03:05:36;;;;;;;9.55;3.00;;;11.40;99.90;;;11.49;100.00;100015.84;4992300;28;20230;-85
2022/11/09 03:08:04;;;;;;;11.40;3.22;;;11.40;99.90;;;11.53;100.00;100020.25;5008345;28;20243;-83
2022/11/09 03:10:31;;;;;;;11.43;3.30;;;11.40;99.90;;;11.55;100.00;100034.34;5010979;28;20656;-83
2022/11/09 03:12:58;;;;;;;14.30;3.95;;;11.50;99.90;;;11.52;100.00;100032.59;5023730;28;20251;-83
2022/11/09 03:15:26;;;;;;;12.40;3.55;;;11.50;99.90;;;11.52;100.00;100035.25;4990263;28;20227;-82
2022/11/09 03:17:53;;;;;;;13.27;4.30;;;11.40;99.90;;;11.55;100.00;100037.00;4977126;28;20232;-84
2022/11/09 03:20:20;;;;;;;10.98;3.38;;;11.50;99.90;;;11.56;100.00;100036.13;4986731;28;20228;-85
2022/11/09 03:22:47;;;;;;;15.63;4.70;;;11.50;99.90;;;11.60;100.00;100043.19;4977898;28;20232;-84
2022/11/09 03:25:14;;;;;;;12.85;3.78;;;11.50;99.90;;;11.60;100.00;100050.25;4985868;28;20295;-85
2022/11/09 03:27:42;;;;;;;9.07;2.88;;;11.50;99.90;;;11.59;100.00;100064.38;4998585;28;20232;-84
2022/11/09 03:30:09;;;;;;;9.80;3.03;;;11.70;99.90;;;11.61;100.00;100067.91;4980376;28;20216;-84
2022/11/09 03:32:36;;;;;;;14.55;4.35;;;11.50;99.90;;;11.61;100.00;100067.91;4986758;28;20302;-87
2022/11/09 03:35:04;;;;;;;13.15;4.00;;;11.50;99.90;;;11.55;100.00;100067.03;4986964;28;20236;-87
2022/11/09 03:37:31;;;;;;;9.75;3.03;;;11.50;99.90;;;11.54;100.00;100064.38;4987320;28;20224;-87
2022/11/09 03:39:58;;;;;;;11.40;3.47;;;11.50;99.90;;;11.54;100.00;100077.63;4983461;28;20244;-87
2022/11/09 03:42:25;;;;;;;9.93;3.05;;;11.50;99.90;;;11.53;100.00;100075.84;4987817;28;20731;-87
2022/11/09 03:44:52;;;;;;;10.80;3.28;;;11.40;99.90;;;11.54;100.00;100085.56;4985184;28;20360;-83
2022/11/09 03:47:19;;;;;;;10.00;2.97;;;11.50;99.90;;;11.55;100.00;100084.69;4979588;28;20240;-86
2022/11/09 03:49:47;;;;;;;10.15;3.03;;;11.50;99.90;;;11.55;100.00;100100.56;4984707;28;20236;-85
2022/11/09 03:52:14;;;;;;;8.90;2.83;;;11.50;99.90;;;11.55;100.00;100100.56;4986176;28;20236;-86
2022/11/09 03:54:41;;;;;;;9.05;3.92;;;11.50;99.90;;;11.55;100.00;100109.38;4977012;28;20240;-84
2022/11/09 03:57:09;;;;;;;11.57;3.13;;;11.50;99.90;;;11.53;100.00;100103.22;4987900;28;20237;-86
2022/11/09 03:59:36;;;;;;;14.90;4.22;;;11.50;99.90;;;11.55;100.00;100111.16;4985551;28;20282;-84
2022/11/09 04:02:03;;;;;;;14.63;4.20;;;11.50;99.90;;;11.53;100.00;100107.63;4982796;28;20236;-87
2022/11/09 04:04:30;;;;;;;13.05;3.53;;;11.50;99.90;;;11.52;100.00;100114.69;4985396;28;20244;-87
2022/11/09 04:06:57;;;;;;;14.13;3.78;;;11.40;99.90;;;11.51;100.00;100110.28;4981958;28;20229;-86
2022/11/09 04:09:24;;;;;;;10.82;3.03;;;11.40;99.90;;;11.54;100.00;100118.22;4987360;28;20228;-86
2022/11/09 04:11:51;;;;;;;12.75;3.85;;;11.40;99.90;;;11.54;100.00;100118.22;4984429;28;20553;-86
2022/11/09 04:14:18;;;;;;;8.23;2.65;;;11.30;99.90;;;11.54;100.00;100126.16;4987711;28;20236;-83
2022/11/09 04:16:45;;;;;;;7.63;2.40;;;11.50;99.90;;;11.54;100.00;100133.22;4984056;28;20235;-82
2022/11/09 04:19:12;;;;;;;8.00;2.53;;;11.40;99.90;;;11.55;100.00;100127.03;4982461;28;20261;-83
2022/11/09 04:21:40;;;;;;;7.32;2.25;;;11.50;99.90;;;11.55;100.00;100124.41;5002792;28;20244;-85
2022/11/09 04:24:07;;;;;;;11.35;3.38;;;11.50;99.90;;;11.55;100.00;100122.63;4988992;28;20244;-85
2022/11/09 04:26:34;;;;;;;10.27;2.80;;;11.50;99.90;;;11.53;100.00;100129.69;4991342;28;20239;-84
2022/11/09 04:29:01;;;;;;;10.32;2.90;;;11.50;99.90;;;11.53;100.00;100139.41;4985666;28;20299;-86
2022/11/09 04:31:28;;;;;;;10.18;3.05;;;11.50;99.90;;;11.50;100.00;100118.22;4982079;28;20233;-86
2022/11/09 04:33:55;;;;;;;6.97;2.28;;;11.40;99.90;;;11.46;100.00;100121.75;4977073;28;20299;-85
2022/11/09 04:36:23;;;;;;;9.40;2.88;;;11.40;99.90;;;11.42;100.00;100133.22;4980477;28;20275;-85
2022/11/09 04:38:50;;;;;;;7.32;2.38;;;11.40;99.90;;;11.40;100.00;100125.28;4970857;28;20260;-85
2022/11/09 04:41:17;;;;;;;6.55;2.13;;;11.40;99.90;;;11.38;100.00;100131.44;4971164;28;20236;-83
2022/11/09 04:43:44;;;;;;;8.68;3.80;;;11.30;99.90;;;11.37;100.00;100127.03;4968769;28;20240;-83
2022/11/09 04:46:11;;;;;;;7.85;2.45;;;11.30;99.90;;;11.35;100.00;100129.69;4984435;28;20225;-83
2022/11/09 04:48:38;;;;;;;10.52;3.05;;;11.30;99.90;;;11.34;100.00;100132.31;4989848;28;20684;-83
2022/11/09 04:51:09;;;;;;;8.85;3.13;;;11.30;99.90;;;11.31;100.00;100129.69;4990093;28;20312;-83
2022/11/09 04:53:37;;;;;;;11.10;3.35;;;11.30;99.90;;;11.29;100.00;100134.97;4981994;28;20236;-83
2022/11/09 04:56:05;;;;;;;10.80;3.10;;;11.30;99.90;;;11.30;100.00;100149.97;4986544;28;20229;-82
2022/11/09 04:58:33;;;;;;;8.75;2.65;;;11.30;99.90;;;11.29;100.00;100145.56;4971014;28;20224;-83
2022/11/09 05:01:14;;;;;;;9.30;2.80;;;11.20;99.90;;;11.23;100.00;100138.50;4984550;28;20236;-82
2022/11/09 05:03:41;;;;;;;7.50;2.60;;;11.20;99.90;;;11.22;100.00;100146.44;4988301;28;20236;-83
2022/11/09 05:08:55;;;;;;;8.18;2.65;;;11.20;99.90;;;11.14;100.00;100161.41;4981300;28;20229;-84
2022/11/09 05:11:23;;;;;;;8.70;2.70;;;11.10;99.90;;;11.13;100.00;100171.13;4987097;28;20232;-86
2022/11/09 05:13:50;;;;;;;9.85;3.13;;;11.10;99.90;;;11.15;100.00;100176.41;4988242;28;20278;-86
2022/11/09 05:16:18;;;;;;;10.70;3.72;;;11.10;99.90;;;11.16;100.00;100178.19;5004607;28;20252;-85
2022/11/09 05:18:46;;;;;;;8.02;2.60;;;11.10;99.90;;;11.19;100.00;100187.00;4982200;28;20229;-86
2022/11/09 05:21:13;;;;;;;11.38;3.53;;;11.10;99.90;;;11.16;100.00;100179.06;4985566;28;20235;-84
2022/11/09 05:23:58;;;;;;;14.50;4.57;;;11.10;99.90;;;11.16;100.00;100181.72;4984874;28;20271;-81
2022/11/09 05:26:33;;;;;;;12.35;3.95;;;11.10;99.90;;;11.18;100.00;100179.06;4986509;28;20251;-81
2022/11/09 05:29:04;;;;;;;12.05;4.10;;;11.10;99.90;;;11.20;100.00;100190.53;4984337;28;20256;-82
2022/11/09 05:31:32;;;;;;;8.95;2.97;;;11.10;99.90;;;11.21;100.00;100195.84;4985204;28;20232;-85
2022/11/09 05:34:00;;;;;;;13.02;4.20;;;11.20;99.90;;;11.21;100.00;100187.91;5002155;28;20232;-84
2022/11/09 05:36:29;;;;;;;14.05;4.03;;;11.20;99.90;;;11.27;100.00;100197.63;4985856;28;20224;-82
2022/11/09 05:38:57;;;;;;;10.77;3.10;;;11.20;99.90;;;11.30;100.00;100199.38;4990624;28;20283;-82
2022/11/09 05:41:25;;;;;;;9.77;2.90;;;11.20;99.90;;;11.31;100.00;100199.41;4982024;28;20228;-85
2022/11/09 05:43:52;;;;;;;8.50;2.60;;;11.30;99.90;;;11.31;100.00;100201.16;4990016;28;20260;-85
2022/11/09 05:46:20;;;;;;;9.20;3.08;;;11.20;99.90;;;11.34;100.00;100206.47;4990622;28;20252;-86
2022/11/09 05:48:47;;;;;;;8.60;2.75;;;11.30;99.90;;;11.35;100.00;100203.81;4986446;28;20251;-84
2022/11/09 05:51:15;;;;;;;7.88;2.53;;;11.30;99.90;;;11.35;100.00;100190.56;4985294;28;20267;-84
2022/11/09 05:53:42;;;;;;;11.75;3.65;;;11.30;99.90;;;11.34;100.00;100186.16;4989269;28;20336;-83
2022/11/09 05:56:13;;;;;;;11.38;3.35;;;11.30;99.90;;;11.36;100.00;100192.34;4985224;28;20244;-84
2022/11/09 05:58:41;;;;;;;14.13;4.85;;;11.30;99.90;;;11.35;100.00;100184.41;4985931;28;20224;-83
2022/11/09 06:01:14;;;;;;;13.18;3.90;;;11.30;99.90;;;11.35;100.00;100192.34;4985187;28;20283;-87
2022/11/09 06:03:42;;;;;;;14.75;4.22;;;11.30;99.90;;;11.35;100.00;100202.94;4982966;28;20312;-87
2022/11/09 06:06:13;;;;;;;8.05;2.60;;;11.30;99.90;;;11.35;100.00;100206.47;4978430;28;20245;-86
2022/11/09 06:08:41;;;;;;;10.27;3.20;;;11.30;99.90;;;11.37;100.00;100217.06;4998433;28;20251;-87
2022/11/09 06:11:11;;;;;;;12.73;3.90;;;11.30;99.90;;;11.38;100.00;100218.81;4980832;28;20311;-87
2022/11/09 06:13:42;;;;;;;10.82;3.38;;;11.30;99.90;;;11.38;100.00;100221.47;4982321;28;20239;-88
2022/11/09 06:16:09;;;;;;;8.63;2.67;;;11.30;99.90;;;11.36;100.00;100217.94;4985166;28;20274;-84
2022/11/09 06:18:36;;;;;;;11.35;3.03;;;11.30;99.90;;;11.39;100.00;100220.59;4989265;28;20232;-84
2022/11/09 06:21:05;;;;;;;8.50;2.72;;;11.30;99.90;;;11.39;100.00;100218.81;4991800;28;20241;-85
2022/11/09 06:23:33;;;;;;;11.20;3.63;;;11.30;99.90;;;11.41;100.00;100222.34;4992158;28;20236;-83
2022/11/09 06:26:06;;;;;;;10.82;3.20;;;11.30;99.90;;;11.39;100.00;100229.41;4992616;28;20235;-86
2022/11/09 06:28:34;;;;;;;10.15;2.90;;;11.30;99.90;;;11.41;100.00;100227.66;4996686;28;20232;-86
2022/11/09 06:31:04;;;;;;;11.35;3.22;;;11.30;99.90;;;11.44;100.00;100217.06;4988686;28;20374;-84
2022/11/09 06:33:33;;;;;;;15.40;4.47;;;11.40;99.90;;;11.48;100.00;100226.78;4992244;28;20281;-85
2022/11/09 06:36:02;;;;;;;12.32;3.58;;;11.40;99.90;;;11.51;100.00;100223.25;4988820;28;20283;-84
2022/11/09 06:38:30;;;;;;;9.20;2.90;;;11.40;99.90;;;11.51;100.00;100213.56;4991394;28;20232;-85
2022/11/09 06:40:58;;;;;;;11.80;3.35;;;11.40;99.90;;;11.50;100.00;100213.56;4992255;28;20244;-86
2022/11/09 06:43:26;;;;;;;10.63;3.20;;;11.40;99.90;;;11.47;100.00;100210.91;4985234;28;20253;-86
2022/11/09 06:45:53;;;;;;;11.50;3.53;;;11.40;99.90;;;11.47;100.00;100201.19;4993008;28;20661;-82
2022/11/09 06:48:21;;;;;;;7.90;2.42;;;11.40;99.90;;;11.47;100.00;100202.94;4993660;28;20232;-85
2022/11/09 06:50:48;;;;;;;8.57;2.65;;;11.40;99.90;;;11.46;100.00;100193.25;4990468;28;20292;-85
2022/11/09 06:53:16;;;;;;;7.85;2.47;;;11.40;99.90;;;11.43;100.00;100187.94;4986892;28;20279;-85
2022/11/09 06:55:44;;;;;;;6.95;2.03;;;11.40;99.90;;;11.43;100.00;100199.41;5007338;28;20220;-84
2022/11/09 06:58:18;;;;;;;7.68;2.35;;;11.40;99.90;;;11.43;100.00;100206.47;4987685;28;20232;-83
2022/11/09 07:00:46;;;;;;;13.75;3.97;;;11.40;99.90;;;11.45;100.00;100224.13;4977889;28;20351;-84
2022/11/09 07:03:15;;;;;;;15.07;4.40;;;11.40;99.90;;;11.46;100.00;100231.19;4982015;28;20239;-84
2022/11/09 07:05:43;;;;;;;8.93;2.67;;;11.40;99.90;;;11.46;100.00;100241.78;4986516;28;20232;-84
2022/11/09 07:08:11;;;;;;;9.43;2.72;;;11.40;99.90;;;11.48;100.00;100242.69;4987492;28;20684;-85
2022/11/09 07:10:39;;;;;;;18.45;4.82;;;11.40;99.90;;;11.48;100.00;100263.84;4979634;28;20232;-81
2022/11/09 07:13:06;;;;;;;10.70;2.88;;;11.40;99.90;;;11.48;100.00;100258.56;4982291;28;20236;-82
2022/11/09 07:15:35;;;;;;;9.90;3.00;;;11.40;99.90;;;11.48;100.00;100263.84;4986669;28;20693;-82
2022/11/09 07:18:05;;;;;;;10.93;3.05;;;11.40;99.90;;;11.49;100.00;100257.69;4985504;28;20298;-82
2022/11/09 07:20:32;;;;;;;12.20;3.70;;;11.40;99.90;;;11.52;100.00;100259.44;4983376;28;20244;-82
2022/11/09 07:22:59;;;;;;;10.77;3.00;;;11.40;99.90;;;11.52;100.00;100259.44;4988663;28;20240;-84
2022/11/09 07:25:26;;;;;;;12.57;3.53;;;11.40;99.90;;;11.50;100.00;100262.09;4983487;28;20743;-82
2022/11/09 07:27:53;;;;;;;9.38;2.92;;;11.40;99.90;;;11.52;100.00;100264.75;4981365;28;20228;-82
2022/11/09 07:30:21;;;;;;;6.53;2.03;;;11.40;99.90;;;11.51;100.00;100257.69;4988189;28;20237;-83
2022/11/09 07:32:48;;;;;;;16.42;4.57;;;11.40;99.90;;;11.49;100.00;100256.81;4985241;28;20298;-82
2022/11/09 07:35:35;;;;;;;13.40;3.63;;;11.40;99.90;;;11.48;100.00;100263.84;4973545;28;20249;-82
2022/11/09 07:38:02;;;;;;;14.40;3.92;;;11.40;99.90;;;11.48;100.00;100269.16;4974266;28;20237;-81
2022/11/09 07:40:30;;;;;;;11.80;3.13;;;11.40;99.90;;;11.49;100.00;100289.47;4986960;28;20232;-82
2022/11/09 07:43:01;;;;;;;13.32;3.70;;;11.40;99.90;;;11.50;100.00;100290.34;4969956;28;20251;-82
2022/11/09 07:45:29;;;;;;;8.77;2.65;;;11.40;99.90;;;11.50;100.00;100296.53;4975533;28;20276;-82
2022/11/09 07:48:02;;;;;;;9.38;2.80;;;11.40;99.90;;;11.50;100.00;100306.22;4976111;28;20307;-82
2022/11/09 07:50:31;;;;;;;9.25;2.85;;;11.40;99.90;;;11.48;100.00;100303.59;4987521;28;20228;-81
2022/11/09 07:53:00;;;;;;;12.00;3.65;;;11.40;99.90;;;11.47;100.00;100314.16;4981936;28;20241;-85
2022/11/09 07:55:28;;;;;;;12.88;3.85;;;11.40;99.90;;;11.47;100.00;100319.47;4983383;28;20264;-84
2022/11/09 07:58:02;;;;;;;10.15;3.15;;;11.40;99.90;;;11.45;100.00;100322.09;4983717;28;20256;-82
2022/11/09 08:00:32;;;;;;;14.85;4.30;;;11.50;99.90;;;11.44;100.00;100328.28;4981862;28;20255;-83
2022/11/09 08:02:59;;;;;;;14.68;4.03;;;11.40;99.90;;;11.44;100.00;100335.34;4981841;28;20284;-84
2022/11/09 08:05:27;;;;;;;14.20;3.85;;;11.40;99.90;;;11.45;100.00;100339.75;4980531;28;20241;-81
2022/11/09 08:07:56;;;;;;;14.00;3.92;;;11.40;99.90;;;11.47;100.00;100335.34;4981347;28;20229;-83
2022/11/09 08:10:26;;;;;;;17.13;4.88;;;11.40;99.90;;;11.47;100.00;100335.34;4978144;28;20229;-82
2022/11/09 08:12:59;;;;;;;7.47;2.30;;;11.40;99.90;;;11.51;100.00;100345.06;4980541;28;20236;-82
2022/11/09 08:15:27;;;;;;;12.02;3.47;;;11.40;99.90;;;11.51;100.00;100335.38;4981441;28;20220;-82
2022/11/09 08:17:58;;;;;;;9.82;3.00;;;11.50;99.90;;;11.52;100.00;100338.91;4981880;28;20267;-82
2022/11/09 08:20:25;;;;;;;11.43;3.28;;;11.50;99.90;;;11.55;100.00;100345.09;4978615;28;20258;-82
2022/11/09 08:22:52;;;;;;;12.63;3.72;;;11.50;99.90;;;11.56;100.00;100340.69;4978790;28;20232;-82
2022/11/09 08:25:19;;;;;;;8.98;2.65;;;11.50;99.90;;;11.58;100.00;100345.97;4981756;28;20291;-82
2022/11/09 08:27:46;;;;;;;9.30;2.67;;;11.50;99.90;;;11.59;100.00;100347.75;4983207;28;20233;-83
2022/11/09 08:30:19;;;;;;;12.30;3.65;;;11.50;99.90;;;11.61;100.00;100346.00;4987873;28;20224;-82
2022/11/09 08:32:48;;;;;;;14.98;4.32;;;11.50;99.90;;;11.66;100.00;100345.13;4981125;28;20236;-87
2022/11/09 08:35:19;;;;;;;9.77;2.95;;;11.60;99.90;;;11.67;100.00;100344.25;4977605;28;20229;-85
2022/11/09 08:37:49;;;;;;;8.80;2.70;;;11.60;99.90;;;11.73;100.00;100338.13;4977284;28;20315;-87
2022/11/09 08:40:22;;;;;;;14.25;4.20;;;11.60;99.90;;;11.73;100.00;100346.94;4977457;28;20231;-85
2022/11/09 08:42:51;;;;;;;14.65;4.20;;;11.60;99.90;;;11.78;100.00;100350.53;4979901;28;20229;-84
2022/11/09 08:45:19;;;;;;;9.98;2.97;;;11.70;99.90;;;11.85;100.00;100360.25;4975935;28;20228;-86
2022/11/09 08:47:46;;;;;;;9.77;3.08;;;11.70;99.90;;;11.92;100.00;100352.31;4978135;28;20232;-84
2022/11/09 08:50:14;;;;;;;9.85;2.95;;;11.80;99.90;;;12.01;100.00;100355.00;4979020;28;20228;-85
2022/11/09 08:52:42;;;;;;;13.07;3.58;;;11.90;99.90;;;12.08;100.00;100364.72;4974434;28;20233;-85
2022/11/09 08:55:09;;;;;;;16.27;4.55;;;11.90;99.90;;;12.16;100.00;100362.97;4985235;28;20239;-85
2022/11/09 08:57:36;;;;;;;13.25;3.60;;;12.00;99.90;;;12.20;100.00;100370.06;4983097;28;20232;-87
2022/11/09 09:00:05;;;;;;;16.17;4.60;;;12.10;99.90;;;12.27;100.00;100374.47;4979926;28;20237;-82
2022/11/09 09:02:32;;;;;;;13.50;4.10;;;12.10;99.90;;;12.28;100.00;100378.91;4988124;28;20310;-83
2022/11/09 09:04:59;;;;;;;9.68;2.75;;;12.20;99.90;;;12.33;100.00;100371.84;4980887;28;20237;-83
2022/11/09 09:07:26;;;;;;;12.40;3.50;;;12.20;99.90;;;12.34;100.00;100373.59;4987452;28;20244;-82
2022/11/09 09:09:54;;;;;;;10.07;2.97;;;12.20;99.90;;;12.41;100.00;100378.03;4981742;28;20229;-83
2022/11/09 09:12:21;;;;;;;9.30;2.97;;;12.30;99.90;;;12.39;100.00;100368.28;4988380;28;20243;-83
2022/11/09 09:14:49;;;;;;;12.43;3.78;;;12.30;99.90;;;12.47;100.00;100366.53;4980976;28;20294;-84
2022/11/09 09:17:16;;;;;;;8.18;2.63;;;12.30;99.90;;;12.54;100.00;100365.66;4987206;28;20228;-84
2022/11/09 09:19:43;;;;;;;9.30;2.88;;;12.40;99.90;;;12.60;100.00;100372.72;4978395;28;20664;-86
2022/11/09 09:22:16;;;;;;;9.43;2.90;;;12.40;99.90;;;12.65;100.00;100379.78;4978597;28;20231;-85
2022/11/09 09:24:43;;;;;;;10.25;3.05;;;12.50;99.90;;;12.63;100.00;100373.59;4980018;28;20236;-85
2022/11/09 09:27:10;;;;;;;8.65;2.65;;;12.50;99.90;;;12.72;100.00;100373.59;4980445;28;20900;-85
2022/11/09 09:29:38;;;;;;;12.32;3.42;;;12.60;99.90;;;12.77;100.00;100378.91;4986241;28;20295;-85
2022/11/09 09:32:05;;;;;;;13.82;3.70;;;12.60;99.90;;;12.87;100.00;100377.13;4981210;28;20240;-85
2022/11/09 09:34:32;;;;;;;10.20;3.03;;;12.70;99.90;;;12.97;100.00;100382.41;4972503;28;20228;-86
2022/11/09 09:36:59;;;;;;;11.95;3.38;;;12.80;99.90;;;12.98;100.00;100373.56;4983978;28;20240;-85
2022/11/09 09:39:26;;;;;;;11.65;3.28;;;12.80;99.90;;;12.98;100.00;100378.00;4984717;28;20288;-83
2022/11/09 09:41:57;;;;;;;9.98;3.03;;;12.90;99.90;;;13.10;100.00;100378.00;4987501;28;20228;-85
2022/11/09 09:44:33;;;;;;;9.80;2.85;;;13.00;99.90;;;13.14;100.00;100383.31;4984623;28;20228;-85
2022/11/09 09:47:26;;;;;;;9.45;2.83;;;13.00;99.90;;;13.19;100.00;100378.00;4981205;28;20245;-85
2022/11/09 09:50:59;;;;;;;12.75;3.72;;;13.10;99.90;;;13.25;100.00;100378.00;4961353;28;20268;-85
2022/11/09 09:53:42;;;;;;;12.15;3.42;;;13.10;99.90;;;13.21;100.00;100375.34;4895664;29;20261;-84
2022/11/09 09:56:20;;;;;;;11.68;3.17;;;13.10;99.90;;;13.29;100.00;100378.88;4988971;28;20282;-83
2022/11/09 09:59:02;;;;;;;9.55;3.20;;;13.20;99.90;;;13.41;100.00;100387.69;4994263;28;20386;-83
2022/11/09 10:01:38;;;;;;;11.02;3.33;;;13.20;99.90;;;13.44;100.00;100374.41;4986026;28;20232;-84
2022/11/09 10:04:33;;;;;;;12.00;3.10;;;13.30;99.90;;;13.63;100.00;100385.84;4993973;28;20247;-84
2022/11/09 10:07:28;;;;;;;13.35;3.88;;;13.50;99.90;;;13.50;100.00;100370.84;4983603;28;20229;-84
2022/11/09 10:10:26;;;;;;;10.20;3.10;;;13.40;99.90;;;13.83;100.00;100391.06;4984633;28;20308;-87
2022/11/09 10:13:15;;;;;;;9.75;3.00;;;13.60;99.90;;;14.08;100.00;100394.47;4982359;28;20331;-85
2022/11/09 10:15:59;;;;;;;7.43;2.30;;;13.80;99.90;;;14.09;100.00;100381.16;4978685;28;20287;-85